Time;durP1;ratioP1;P1;durP2;ratioP2;P2;SDS_P1;SDS_P2;PMS_P1;PMS_P2;Temp;Humidity;BMP_temperature;BMP_pressure;BME280_temperature;BME280_humidity;BME280_pressure;Samples;Min_cycle;Max_cycle;Signal;HPM_P1;HPM_P2
2022/11/20 00:00:38;;;;;;;22.88;14.65;;;1.00;99.90;;;;;;5095356;28;20925;-79
2022/11/20 00:03:04;;;;;;;21.73;15.00;;;1.10;99.90;;;;;;5096020;28;20040;-79
2022/11/20 00:05:32;;;;;;;22.67;14.50;;;1.10;99.90;;;;;;5095758;28;20449;-79
2022/11/20 00:07:58;;;;;;;22.33;14.48;;;1.20;99.90;;;;;;5095802;28;20074;-78
2022/11/20 00:10:24;;;;;;;22.47;14.67;;;1.20;99.90;;;;;;5094593;28;20048;-78
2022/11/20 00:12:49;;;;;;;21.50;14.80;;;1.10;99.90;;;;;;5095864;28;20073;-79
2022/11/20 00:15:15;;;;;;;26.53;16.53;;;1.20;99.90;;;;;;5094728;28;20052;-79
2022/11/20 00:17:41;;;;;;;22.80;14.83;;;1.20;99.90;;;;;;5095485;28;20059;-79
2022/11/20 00:20:07;;;;;;;20.73;14.73;;;1.20;99.90;;;;;;5094679;28;20548;-78
2022/11/20 00:22:32;;;;;;;19.10;13.40;;;1.10;99.90;;;;;;5094276;28;20052;-78
2022/11/20 00:24:58;;;;;;;21.53;14.20;;;1.10;99.90;;;;;;5095256;28;20066;-78
2022/11/20 00:27:24;;;;;;;21.37;14.00;;;1.10;99.90;;;;;;5095306;28;20051;-79
2022/11/20 00:29:49;;;;;;;20.63;14.87;;;1.10;99.90;;;;;;5094346;28;20044;-79
2022/11/20 00:32:15;;;;;;;21.30;14.03;;;1.10;99.90;;;;;;5095402;28;20052;-78
2022/11/20 00:34:41;;;;;;;20.33;13.70;;;1.10;99.90;;;;;;5110906;28;20044;-78
2022/11/20 00:37:06;;;;;;;20.50;14.10;;;1.10;99.90;;;;;;5094461;28;20098;-78
2022/11/20 00:39:32;;;;;;;20.23;13.93;;;1.10;99.90;;;;;;5095003;28;20044;-78
2022/11/20 00:41:58;;;;;;;20.50;13.80;;;1.10;99.90;;;;;;5095290;28;20130;-78
2022/11/20 00:44:23;;;;;;;19.93;13.90;;;1.20;99.90;;;;;;5095163;28;20127;-79
2022/11/20 00:46:49;;;;;;;19.53;13.67;;;1.10;99.90;;;;;;5093804;28;20434;-78
2022/11/20 00:49:15;;;;;;;18.47;12.73;;;1.10;99.90;;;;;;5093947;28;20091;-78
2022/11/20 00:51:40;;;;;;;18.23;13.37;;;1.10;99.90;;;;;;5093819;28;20040;-78
2022/11/20 00:54:06;;;;;;;20.53;14.17;;;1.00;99.90;;;;;;5093912;28;20093;-78
2022/11/20 00:56:31;;;;;;;20.37;14.10;;;1.00;99.90;;;;;;5094755;28;20087;-78
2022/11/20 00:58:59;;;;;;;20.17;15.00;;;1.00;99.90;;;;;;5093808;28;20052;-78
2022/11/20 01:01:25;;;;;;;18.10;13.07;;;0.90;99.90;;;;;;5093979;28;20051;-78
2022/11/20 01:03:53;;;;;;;18.23;12.43;;;0.90;99.90;;;;;;5094797;28;20079;-78
2022/11/20 01:06:24;;;;;;;19.08;13.75;;;0.90;99.90;;;;;;5094762;28;20082;-78
2022/11/20 01:08:52;;;;;;;18.45;12.65;;;1.00;99.90;;;;;;5094348;28;20051;-78
2022/11/20 01:11:21;;;;;;;21.05;14.07;;;1.00;99.90;;;;;;5094624;28;20040;-78
2022/11/20 01:13:49;;;;;;;18.05;13.02;;;0.90;99.90;;;;;;5094337;28;20040;-78
2022/11/20 01:16:24;;;;;;;18.98;13.55;;;0.90;99.90;;;;;;5094519;28;20498;-78
2022/11/20 01:18:52;;;;;;;24.58;13.18;;;1.00;99.90;;;;;;5094128;28;20040;-78
2022/11/20 01:21:31;;;;;;;17.13;12.95;;;1.10;99.90;;;;;;5093288;28;20067;-78
2022/11/20 01:23:57;;;;;;;17.38;13.07;;;1.00;99.90;;;;;;5094676;28;20044;-78
2022/11/20 01:26:26;;;;;;;21.40;13.48;;;1.10;99.90;;;;;;5093027;28;20135;-78
2022/11/20 01:28:53;;;;;;;20.05;14.07;;;1.10;99.90;;;;;;5093090;28;20044;-78
2022/11/20 01:31:31;;;;;;;20.70;14.70;;;1.10;99.90;;;;;;5094093;28;20048;-78
2022/11/20 01:33:59;;;;;;;22.75;14.30;;;1.10;99.90;;;;;;5093364;28;20058;-78
2022/11/20 01:36:28;;;;;;;21.10;15.20;;;1.10;99.90;;;;;;5094345;28;20051;-78
2022/11/20 01:38:56;;;;;;;20.05;13.75;;;1.10;99.90;;;;;;5092824;28;20040;-78
2022/11/20 01:44:08;;;;;;;24.77;16.27;;;1.10;99.90;;;;;;5094135;28;20052;-78
2022/11/20 01:46:37;;;;;;;21.27;14.85;;;1.10;99.90;;;;;;5093855;28;20051;-78
2022/11/20 01:49:17;;;;;;;23.77;15.50;;;1.10;99.90;;;;;;5094016;28;20048;-78
2022/11/20 01:51:51;;;;;;;19.90;14.60;;;1.20;99.90;;;;;;5093269;28;20488;-78
2022/11/20 01:54:25;;;;;;;20.50;13.05;;;1.10;99.90;;;;;;5093985;28;20055;-78
2022/11/20 01:56:53;;;;;;;22.20;14.88;;;1.10;99.90;;;;;;5093554;28;20054;-78
2022/11/20 01:59:20;;;;;;;17.85;12.30;;;1.20;99.90;;;;;;5093679;28;20047;-78
2022/11/20 02:01:46;;;;;;;19.27;12.98;;;1.20;99.90;;;;;;5093215;28;20496;-78
2022/11/20 02:04:13;;;;;;;21.70;13.45;;;1.20;99.90;;;;;;5093720;28;20157;-78
2022/11/20 02:06:44;;;;;;;20.08;14.25;;;1.10;99.90;;;;;;5093341;28;20052;-78
2022/11/20 02:09:11;;;;;;;18.15;12.98;;;1.20;99.90;;;;;;5092946;28;20074;-78
2022/11/20 02:11:36;;;;;;;18.20;13.27;;;1.20;99.90;;;;;;5093317;28;20055;-79
2022/11/20 02:14:02;;;;;;;19.07;13.13;;;1.20;99.90;;;;;;5092525;28;20035;-78
2022/11/20 02:16:35;;;;;;;19.97;13.73;;;1.20;99.90;;;;;;5093595;28;20387;-78
2022/11/20 02:19:05;;;;;;;17.20;11.93;;;1.20;99.90;;;;;;5093713;28;20164;-78
2022/11/20 02:21:46;;;;;;;18.65;13.18;;;1.20;99.90;;;;;;5093488;28;20044;-78
2022/11/20 02:24:18;;;;;;;18.58;13.00;;;1.20;99.90;;;;;;5093623;28;20083;-77
2022/11/20 02:26:55;;;;;;;17.05;12.88;;;1.30;99.90;;;;;;5091867;28;20473;-78
2022/11/20 02:29:48;;;;;;;17.55;12.07;;;1.30;99.90;;;;;;5093368;28;20079;-78
2022/11/20 02:32:20;;;;;;;18.60;12.80;;;1.30;99.90;;;;;;5091789;28;20063;-78
2022/11/20 02:34:46;;;;;;;19.95;13.35;;;1.30;99.90;;;;;;5092064;28;20441;-78
2022/11/20 02:37:12;;;;;;;17.03;11.80;;;1.30;99.90;;;;;;5093242;28;20035;-78
2022/11/20 02:39:39;;;;;;;20.10;13.43;;;1.40;99.90;;;;;;5092902;28;20476;-80
2022/11/20 02:42:05;;;;;;;21.75;13.65;;;1.30;99.90;;;;;;5091926;28;20052;-78
2022/11/20 02:44:31;;;;;;;18.00;13.23;;;1.40;99.90;;;;;;5092249;28;20098;-78
2022/11/20 02:46:58;;;;;;;19.67;13.90;;;1.30;99.90;;;;;;5091645;28;20087;-79
2022/11/20 02:49:24;;;;;;;20.13;14.48;;;1.40;99.90;;;;;;5093624;28;20450;-78
2022/11/20 02:51:50;;;;;;;22.27;13.70;;;1.30;99.90;;;;;;5092822;28;20040;-78
2022/11/20 02:54:15;;;;;;;19.63;14.23;;;1.50;99.90;;;;;;5093164;28;20090;-78
2022/11/20 02:56:41;;;;;;;19.57;12.83;;;1.30;99.90;;;;;;5092856;28;20559;-79
2022/11/20 02:59:07;;;;;;;16.63;12.73;;;1.40;99.90;;;;;;5093642;28;20502;-78
2022/11/20 03:01:32;;;;;;;17.73;13.17;;;1.40;99.90;;;;;;5093054;28;20048;-78
2022/11/20 03:03:58;;;;;;;18.23;13.00;;;1.40;99.90;;;;;;5092673;28;20048;-78
2022/11/20 03:06:24;;;;;;;20.43;13.03;;;1.40;99.90;;;;;;5092958;28;20147;-78
2022/11/20 03:08:50;;;;;;;18.77;13.20;;;1.40;99.90;;;;;;5092653;28;20090;-78
2022/11/20 03:11:16;;;;;;;18.67;12.77;;;1.40;99.90;;;;;;5092224;28;20055;-78
2022/11/20 03:13:42;;;;;;;17.40;12.52;;;1.50;99.90;;;;;;5092612;28;20044;-79
2022/11/20 03:16:17;;;;;;;19.33;13.50;;;1.40;99.90;;;;;;5091865;28;20047;-78
2022/11/20 03:18:43;;;;;;;18.75;13.13;;;1.50;99.90;;;;;;5091831;28;20052;-79
2022/11/20 03:21:11;;;;;;;19.80;12.52;;;1.50;99.90;;;;;;5092837;28;20092;-78
2022/11/20 03:23:37;;;;;;;18.42;13.10;;;1.50;99.90;;;;;;5092872;28;20545;-78
2022/11/20 03:26:11;;;;;;;19.40;13.30;;;1.50;99.90;;;;;;5092664;28;20148;-78
2022/11/20 03:28:37;;;;;;;20.02;13.95;;;1.50;99.90;;;;;;5092834;28;20052;-78
2022/11/20 03:31:12;;;;;;;17.55;13.23;;;1.50;99.90;;;;;;5091318;28;20051;-78
2022/11/20 03:33:40;;;;;;;16.33;12.75;;;1.50;99.90;;;;;;5092970;28;20067;-78
2022/11/20 03:36:09;;;;;;;18.48;12.63;;;1.50;99.90;;;;;;5092374;28;20052;-78
2022/11/20 03:38:35;;;;;;;17.25;13.13;;;1.50;99.90;;;;;;5092824;28;20051;-78
2022/11/20 03:41:07;;;;;;;20.52;14.00;;;1.40;99.90;;;;;;5092393;28;20082;-78
2022/11/20 03:43:32;;;;;;;18.90;13.25;;;1.40;99.90;;;;;;5092681;28;20047;-78
2022/11/20 03:45:59;;;;;;;18.20;13.10;;;1.30;99.90;;;;;;5092340;28;20127;-78
2022/11/20 03:48:25;;;;;;;16.60;11.80;;;1.30;99.90;;;;;;5092696;28;20097;-78
2022/11/20 03:50:52;;;;;;;18.90;12.27;;;1.30;99.90;;;;;;5092278;28;20041;-78
2022/11/20 03:53:19;;;;;;;18.27;13.25;;;1.40;99.90;;;;;;5092481;28;20052;-78
2022/11/20 03:55:50;;;;;;;17.25;12.27;;;1.40;99.90;;;;;;5094352;28;20044;-78
2022/11/20 03:58:16;;;;;;;17.23;12.30;;;1.40;99.90;;;;;;5096076;28;20047;-78
2022/11/20 04:00:41;;;;;;;16.63;11.33;;;1.30;99.90;;;;;;5111695;28;20047;-79
2022/11/20 04:03:07;;;;;;;17.40;12.43;;;1.30;99.90;;;;;;5095775;28;20051;-78
2022/11/20 04:05:33;;;;;;;17.47;12.93;;;1.30;99.90;;;;;;5112027;28;20364;-79
2022/11/20 04:07:59;;;;;;;16.02;11.60;;;1.30;99.90;;;;;;5095589;28;20052;-78
2022/11/20 04:10:25;;;;;;;15.45;10.85;;;1.40;99.90;;;;;;5096142;28;20055;-78
2022/11/20 04:12:51;;;;;;;16.33;12.00;;;1.40;99.90;;;;;;5095536;28;20476;-79
2022/11/20 04:15:17;;;;;;;16.77;11.07;;;1.40;99.90;;;;;;5095549;28;20050;-78
2022/11/20 04:17:43;;;;;;;17.17;12.48;;;1.40;99.90;;;;;;5077906;28;20052;-78
2022/11/20 04:20:09;;;;;;;16.60;12.10;;;1.50;99.90;;;;;;5094181;28;20145;-79
2022/11/20 04:22:34;;;;;;;15.83;12.03;;;1.50;99.90;;;;;;5094673;28;20108;-78
2022/11/20 04:25:00;;;;;;;16.57;11.90;;;1.50;99.90;;;;;;5095114;28;20055;-79
2022/11/20 04:27:26;;;;;;;17.50;11.67;;;1.50;99.90;;;;;;5095647;28;20127;-78
2022/11/20 04:29:51;;;;;;;15.87;11.50;;;1.40;99.90;;;;;;5095263;28;20464;-79
2022/11/20 04:32:17;;;;;;;16.33;12.67;;;1.50;99.90;;;;;;5095497;28;20495;-78
2022/11/20 04:34:43;;;;;;;15.77;11.63;;;1.40;99.90;;;;;;5094419;28;20109;-78
2022/11/20 04:37:08;;;;;;;14.70;10.93;;;1.40;99.90;;;;;;5095164;28;20442;-78
2022/11/20 04:39:34;;;;;;;17.60;12.17;;;1.40;99.90;;;;;;5077556;28;20043;-78
2022/11/20 04:44:44;;;;;;;16.67;11.95;;;1.30;99.90;;;;;;5097228;28;20088;-78
2022/11/20 04:47:09;;;;;;;15.83;12.23;;;1.30;99.90;;;;;;5093406;28;20083;-78
2022/11/20 04:49:35;;;;;;;18.03;12.00;;;1.40;99.90;;;;;;5077139;28;20036;-78
2022/11/20 04:52:01;;;;;;;16.67;12.40;;;1.30;99.90;;;;;;5095068;28;20456;-78
2022/11/20 04:54:26;;;;;;;17.63;13.37;;;1.20;99.90;;;;;;5094138;28;20044;-78
2022/11/20 04:56:52;;;;;;;18.00;12.03;;;1.20;99.90;;;;;;5094999;28;20094;-78
2022/11/20 04:59:18;;;;;;;16.10;11.60;;;1.20;99.90;;;;;;5094877;28;20036;-78
2022/11/20 05:01:43;;;;;;;16.33;11.83;;;1.20;99.90;;;;;;5094974;28;20472;-78
2022/11/20 05:04:09;;;;;;;16.53;12.30;;;1.20;99.90;;;;;;5094515;28;20048;-78
2022/11/20 05:06:35;;;;;;;17.37;12.00;;;1.20;99.90;;;;;;5093584;28;20093;-78
2022/11/20 05:09:01;;;;;;;19.77;12.13;;;1.30;99.90;;;;;;5094497;28;20096;-78
2022/11/20 05:11:28;;;;;;;18.42;12.30;;;1.30;99.90;;;;;;5093533;28;20189;-78
2022/11/20 05:13:54;;;;;;;17.58;11.55;;;1.30;99.90;;;;;;5093395;28;20072;-78
2022/11/20 05:16:22;;;;;;;19.42;13.02;;;1.20;99.90;;;;;;5094343;28;20136;-78
2022/11/20 05:18:49;;;;;;;15.25;11.18;;;1.20;99.90;;;;;;5094513;28;20178;-78
2022/11/20 05:21:16;;;;;;;17.83;12.23;;;1.20;99.90;;;;;;5093081;28;20097;-78
2022/11/20 05:23:42;;;;;;;16.50;11.68;;;1.30;99.90;;;;;;5094794;28;20055;-78
2022/11/20 05:26:14;;;;;;;16.50;11.82;;;1.20;99.90;;;;;;5092401;28;20515;-78
2022/11/20 05:28:40;;;;;;;17.23;12.73;;;1.30;99.90;;;;;;5094394;28;20083;-78
2022/11/20 05:31:06;;;;;;;15.83;11.53;;;1.20;99.90;;;;;;5093143;28;20067;-78
2022/11/20 05:33:33;;;;;;;17.25;12.35;;;1.20;99.90;;;;;;5093099;28;20059;-78
2022/11/20 05:35:59;;;;;;;16.75;12.48;;;1.10;99.90;;;;;;5093952;28;20051;-78
2022/11/20 05:38:25;;;;;;;17.27;12.70;;;1.10;99.90;;;;;;5094337;28;20401;-77
2022/11/20 05:40:50;;;;;;;16.70;12.10;;;1.10;99.90;;;;;;5094220;28;20498;-77
2022/11/20 05:43:16;;;;;;;17.67;12.53;;;1.20;99.90;;;;;;5093829;28;20396;-77
2022/11/20 05:45:42;;;;;;;16.97;12.70;;;1.20;99.90;;;;;;5094384;28;20048;-77
2022/11/20 05:48:07;;;;;;;17.70;12.20;;;1.20;99.90;;;;;;5093678;28;20089;-77
2022/11/20 05:50:33;;;;;;;17.57;12.97;;;1.20;99.90;;;;;;5093145;28;20059;-77
2022/11/20 05:53:00;;;;;;;18.47;12.63;;;1.20;99.90;;;;;;5093954;28;20096;-77
2022/11/20 05:55:26;;;;;;;16.60;12.02;;;1.30;99.90;;;;;;5093810;28;20054;-78
2022/11/20 05:57:55;;;;;;;17.63;13.13;;;1.30;99.90;;;;;;5093829;28;20156;-78
2022/11/20 06:00:20;;;;;;;17.30;12.55;;;1.30;99.90;;;;;;5093436;28;20043;-78
2022/11/20 06:02:46;;;;;;;17.90;12.93;;;1.20;99.90;;;;;;5093775;28;20044;-77
2022/11/20 06:05:12;;;;;;;15.43;12.20;;;1.30;99.90;;;;;;5093518;28;20040;-78
2022/11/20 06:07:38;;;;;;;17.73;12.97;;;1.20;99.90;;;;;;5093684;28;20471;-78
2022/11/20 06:10:04;;;;;;;16.87;11.93;;;1.20;99.90;;;;;;5092344;28;20122;-78
2022/11/20 06:12:32;;;;;;;16.07;11.90;;;1.30;99.90;;;;;;5109730;28;20044;-77
2022/11/20 06:14:59;;;;;;;15.77;11.77;;;1.30;99.90;;;;;;5093510;28;20077;-77
2022/11/20 06:17:24;;;;;;;15.32;11.55;;;1.30;99.90;;;;;;5092526;28;20059;-77
2022/11/20 06:19:50;;;;;;;16.43;12.20;;;1.30;99.90;;;;;;5092358;28;20051;-77
2022/11/20 06:22:15;;;;;;;18.03;13.03;;;1.30;99.90;;;;;;5093282;28;20488;-78
2022/11/20 06:24:41;;;;;;;17.43;12.33;;;1.30;99.90;;;;;;5093227;28;20048;-77
2022/11/20 06:27:07;;;;;;;15.43;11.57;;;1.30;99.90;;;;;;5091577;28;20074;-78
2022/11/20 06:29:33;;;;;;;15.33;11.43;;;1.40;99.90;;;;;;5093408;28;20091;-77
2022/11/20 06:31:58;;;;;;;13.60;10.00;;;1.40;99.90;;;;;;5093318;28;20083;-77
2022/11/20 06:34:24;;;;;;;15.93;10.83;;;1.40;99.90;;;;;;5093290;28;20088;-77
2022/11/20 06:36:49;;;;;;;14.30;10.67;;;1.30;99.90;;;;;;5091800;28;20044;-77
2022/11/20 06:39:15;;;;;;;15.83;11.53;;;1.30;99.90;;;;;;5092827;28;20092;-77
2022/11/20 06:41:41;;;;;;;18.83;12.77;;;1.20;99.90;;;;;;5093263;28;20051;-77
2022/11/20 06:44:06;;;;;;;16.87;11.17;;;1.20;99.90;;;;;;5093369;28;20051;-79
2022/11/20 06:46:32;;;;;;;16.13;11.40;;;1.30;99.90;;;;;;5093432;28;20480;-77
2022/11/20 06:48:58;;;;;;;15.00;11.10;;;1.20;99.90;;;;;;5092212;28;20075;-77
2022/11/20 06:51:24;;;;;;;15.10;11.23;;;1.10;99.90;;;;;;5092570;28;20043;-78
2022/11/20 06:53:49;;;;;;;15.32;10.85;;;1.20;99.90;;;;;;5093061;28;20047;-77
2022/11/20 06:56:15;;;;;;;15.13;11.00;;;1.10;99.90;;;;;;5091614;28;20101;-81
2022/11/20 06:58:41;;;;;;;16.37;11.23;;;1.10;99.90;;;;;;5075520;28;20109;-80
2022/11/20 07:01:10;;;;;;;17.03;10.90;;;1.10;99.90;;;;;;5093390;28;20040;-82
2022/11/20 07:03:36;;;;;;;29.75;20.90;;;1.00;99.90;;;;;;5092168;28;20036;-82
2022/11/20 07:06:03;;;;;;;32.95;23.05;;;1.00;99.90;;;;;;5091969;28;20044;-82
2022/11/20 07:08:29;;;;;;;21.27;14.52;;;1.00;99.90;;;;;;5092647;28;20510;-81
2022/11/20 07:11:00;;;;;;;18.27;13.50;;;1.00;99.90;;;;;;5091501;28;20565;-77
2022/11/20 07:13:26;;;;;;;16.80;11.75;;;1.00;99.90;;;;;;5091461;28;20059;-81
2022/11/20 07:15:52;;;;;;;15.13;11.45;;;1.00;99.90;;;;;;5075185;28;20477;-79
2022/11/20 07:18:17;;;;;;;15.00;11.07;;;1.10;99.90;;;;;;5092735;28;20055;-80
2022/11/20 07:20:43;;;;;;;16.23;11.17;;;1.20;99.90;;;;;;5091930;28;20472;-79
2022/11/20 07:23:09;;;;;;;15.27;11.43;;;1.10;99.90;;;;;;5092842;28;20059;-80
2022/11/20 07:25:35;;;;;;;15.90;12.10;;;1.20;99.90;;;;;;5091184;28;20052;-79
2022/11/20 07:28:01;;;;;;;16.05;11.88;;;1.20;99.90;;;;;;5093345;28;20056;-80
2022/11/20 07:30:30;;;;;;;26.10;17.13;;;1.20;99.90;;;;;;5096522;28;20457;-79
2022/11/20 07:32:57;;;;;;;40.88;25.50;;;1.20;99.90;;;;;;5096667;28;20399;-77
2022/11/20 07:35:24;;;;;;;21.02;13.55;;;1.20;99.90;;;;;;5096316;28;20055;-79
2022/11/20 07:37:49;;;;;;;17.15;11.88;;;1.20;99.90;;;;;;5095583;28;20423;-79
2022/11/20 07:40:16;;;;;;;17.87;12.43;;;1.30;99.90;;;;;;5095070;28;20056;-78
2022/11/20 07:43:08;;;;;;;81.70;45.90;;;1.30;99.90;;;;;;5096436;28;20069;-76
2022/11/20 07:45:33;;;;;;;46.33;27.98;;;1.30;99.90;;;;;;5095035;28;20090;-76
2022/11/20 07:47:59;;;;;;;32.13;22.23;;;1.30;99.90;;;;;;5096359;28;20080;-76
2022/11/20 07:50:25;;;;;;;20.73;13.57;;;1.30;99.90;;;;;;5095055;28;20059;-76
2022/11/20 07:52:50;;;;;;;26.47;17.00;;;1.40;99.90;;;;;;5096276;28;20127;-75
2022/11/20 07:55:16;;;;;;;26.70;16.67;;;1.40;99.90;;;;;;5097306;28;20491;-76
2022/11/20 07:57:42;;;;;;;21.27;14.47;;;1.30;99.90;;;;;;5096036;28;20044;-75
2022/11/20 08:00:10;;;;;;;19.27;13.50;;;1.20;99.90;;;;;;5095076;28;20037;-76
2022/11/20 08:02:39;;;;;;;18.05;13.35;;;1.30;99.90;;;;;;5095873;28;20051;-77
2022/11/20 08:05:05;;;;;;;16.48;12.32;;;1.30;99.90;;;;;;5095014;28;20040;-77
2022/11/20 08:07:39;;;;;;;16.88;11.88;;;1.30;99.90;;;;;;5095759;28;20077;-76
2022/11/20 08:10:05;;;;;;;17.10;11.80;;;1.30;99.90;;;;;;5094948;28;20498;-76
2022/11/20 08:15:15;;;;;;;18.08;11.52;;;1.30;99.90;;;;;;5095983;28;20052;-76
2022/11/20 08:17:40;;;;;;;21.80;15.30;;;1.40;99.90;;;;;;5095486;28;20053;-77
2022/11/20 08:20:06;;;;;;;21.57;14.90;;;1.40;99.90;;;;;;5094632;28;20040;-76
2022/11/20 08:22:32;;;;;;;19.08;13.00;;;1.40;99.90;;;;;;5095308;28;20051;-76
2022/11/20 08:24:58;;;;;;;14.97;10.90;;;1.50;99.90;;;;;;5094432;28;20054;-77
2022/11/20 08:27:23;;;;;;;20.73;14.67;;;1.50;99.90;;;;;;5077164;28;20056;-77
2022/11/20 08:29:49;;;;;;;18.30;12.90;;;1.50;99.90;;;;;;5095782;28;20051;-76
2022/11/20 08:32:15;;;;;;;15.77;11.80;;;1.50;99.90;;;;;;5094466;28;20528;-76
2022/11/20 08:34:40;;;;;;;19.30;14.43;;;1.50;99.90;;;;;;5093953;28;20132;-75
2022/11/20 08:37:06;;;;;;;14.60;10.47;;;1.50;99.90;;;;;;5095482;28;20048;-75
2022/11/20 08:39:32;;;;;;;16.73;13.10;;;1.50;99.90;;;;;;5094589;28;20483;-77
2022/11/20 08:41:57;;;;;;;18.20;13.83;;;1.50;99.90;;;;;;5077332;28;20048;-76
2022/11/20 08:44:23;;;;;;;19.17;13.57;;;1.60;99.90;;;;;;5095044;28;20043;-76
2022/11/20 08:46:49;;;;;;;15.67;10.83;;;1.60;99.90;;;;;;5095234;28;20494;-76
2022/11/20 08:49:15;;;;;;;36.40;20.87;;;1.60;99.90;;;;;;5095209;28;20071;-76
2022/11/20 08:51:41;;;;;;;43.60;26.90;;;1.80;99.90;;;;;;5094889;28;20947;-76
2022/11/20 08:54:07;;;;;;;135.93;73.03;;;1.70;99.90;;;;;;5094744;28;20488;-76
2022/11/20 08:56:33;;;;;;;34.10;21.70;;;1.70;99.90;;;;;;5093526;28;20070;-76
2022/11/20 08:59:01;;;;;;;23.67;17.17;;;1.80;99.90;;;;;;5093892;28;20053;-76
2022/11/20 09:01:29;;;;;;;15.02;11.10;;;1.90;99.90;;;;;;5076970;28;20502;-76
2022/11/20 09:03:59;;;;;;;21.50;13.35;;;1.80;99.90;;;;;;5093879;28;20062;-76
2022/11/20 09:06:25;;;;;;;14.02;10.80;;;1.90;99.90;;;;;;5094489;28;20047;-76
2022/11/20 09:08:54;;;;;;;22.85;17.30;;;1.90;99.90;;;;;;5093719;28;20040;-76
2022/11/20 09:11:21;;;;;;;16.65;10.80;;;2.00;99.90;;;;;;5076795;28;20448;-76
2022/11/20 09:13:46;;;;;;;24.05;20.05;;;1.90;99.90;;;;;;5094425;28;20446;-76
2022/11/20 09:16:12;;;;;;;18.77;15.07;;;1.90;99.90;;;;;;5094436;28;20044;-76
2022/11/20 09:18:38;;;;;;;16.97;14.37;;;1.90;99.90;;;;;;5094362;28;20128;-76
2022/11/20 09:21:10;;;;;;;12.18;9.68;;;1.90;99.90;;;;;;5094542;28;20079;-77
2022/11/20 09:23:37;;;;;;;16.23;11.55;;;2.10;99.90;;;;;;5094068;28;20468;-77
2022/11/20 09:26:13;;;;;;;17.10;13.43;;;2.00;99.90;;;;;;5094111;28;20048;-77
2022/11/20 09:28:40;;;;;;;42.88;24.98;;;2.10;99.90;;;;;;5092935;28;20430;-78
2022/11/20 09:31:17;;;;;;;38.38;23.67;;;2.10;99.90;;;;;;5076489;28;20048;-77
2022/11/20 09:33:43;;;;;;;20.00;13.40;;;2.10;99.90;;;;;;5094068;28;20056;-76
2022/11/20 09:36:08;;;;;;;16.57;12.00;;;2.20;99.90;;;;;;5093110;28;20048;-77
2022/11/20 09:38:34;;;;;;;13.43;9.40;;;2.20;99.90;;;;;;5096231;28;20131;-77
2022/11/20 09:41:05;;;;;;;18.95;13.35;;;2.30;99.90;;;;;;5076132;28;20059;-79
2022/11/20 09:43:46;;;;;;;17.20;9.73;;;2.20;99.90;;;;;;5092890;28;20048;-80
2022/11/20 09:46:27;;;;;;;13.75;9.73;;;2.20;99.90;;;;;;5094145;28;20527;-80
2022/11/20 09:49:11;;;;;;;12.18;9.07;;;2.20;99.90;;;;;;5076655;28;20059;-78
2022/11/20 09:51:51;;;;;;;13.27;9.32;;;2.30;99.90;;;;;;5093648;28;20096;-79
2022/11/20 09:54:20;;;;;;;13.18;9.82;;;2.30;99.90;;;;;;5094068;28;20043;-81
2022/11/20 09:56:51;;;;;;;15.63;11.48;;;2.30;99.90;;;;;;5092624;28;20491;-78
2022/11/20 09:59:35;;;;;;;14.38;11.02;;;2.30;99.90;;;;;;5093883;28;20040;-77
2022/11/20 10:02:02;;;;;;;14.45;9.15;;;2.40;99.90;;;;;;5093819;28;20048;-78
2022/11/20 10:04:31;;;;;;;13.38;9.55;;;2.40;99.90;;;;;;5093756;28;20040;-78
2022/11/20 10:07:22;;;;;;;12.25;9.45;;;2.40;99.90;;;;;;5093798;28;20040;-78
2022/11/20 10:09:54;;;;;;;13.70;9.55;;;2.30;99.90;;;;;;5093132;28;20056;-81
2022/11/20 10:12:59;;;;;;;14.27;11.05;;;2.40;99.90;;;;;;5092654;28;20048;-80
2022/11/20 10:16:23;;;;;;;14.68;11.18;;;2.40;99.90;;;;;;5093770;28;20044;-80
2022/11/20 10:19:29;;;;;;;13.05;9.07;;;2.40;99.90;;;;;;5091135;28;20056;-77
2022/11/20 10:22:20;;;;;;;14.45;8.93;;;2.50;99.90;;;;;;5093300;28;20196;-78
2022/11/20 10:25:02;;;;;;;13.35;10.57;;;2.50;99.90;;;;;;5093243;28;20102;-82
2022/11/20 10:27:58;;;;;;;19.00;14.65;;;2.50;99.90;;;;;;5091862;28;20185;-79
2022/11/20 10:30:25;;;;;;;24.17;20.10;;;2.60;99.90;;;;;;5093391;28;20044;-79
2022/11/20 10:33:01;;;;;;;15.55;12.80;;;2.70;99.90;;;;;;5091925;28;20059;-80
2022/11/20 10:35:40;;;;;;;20.92;16.55;;;2.80;99.90;;;;;;5093461;28;20049;-78
2022/11/20 10:38:34;;;;;;;14.60;10.95;;;2.90;99.90;;;;;;5092457;28;20106;-79
2022/11/20 10:47:03;;;;;;;14.77;10.57;;;3.10;99.90;;;;;;5102977;28;20530;-78
2022/11/20 10:49:30;;;;;;;17.42;13.05;;;3.10;99.90;;;;;;5102389;28;20480;-79
2022/11/20 10:52:21;;;;;;;16.52;12.40;;;3.10;99.90;;;;;;5101331;28;20557;-79
2022/11/20 10:55:22;;;;;;;17.40;12.70;;;3.10;99.90;;;;;;5099879;28;20387;-81
2022/11/20 10:58:14;;;;;;;15.07;9.75;;;3.10;99.90;;;;;;5097217;28;20178;-82
2022/11/20 11:00:40;;;;;;;14.48;10.27;;;3.20;99.90;;;;;;5098481;28;20446;-80
2022/11/20 11:03:25;;;;;;;15.60;11.57;;;3.20;99.90;;;;;;5093203;28;20496;-81
2022/11/20 11:06:08;;;;;;;14.57;10.43;;;3.30;99.90;;;;;;5096020;28;20142;-81
2022/11/20 11:08:40;;;;;;;21.80;15.57;;;3.30;99.90;;;;;;5099172;28;20394;-81
2022/11/20 11:11:18;;;;;;;15.43;11.40;;;3.40;99.90;;;;;;5075802;28;20091;-79
2022/11/20 11:13:44;;;;;;;14.93;10.40;;;3.40;99.90;;;;;;5076235;28;20084;-77
2022/11/20 11:16:21;;;;;;;14.77;8.73;;;3.40;99.90;;;;;;5076943;28;20083;-77
2022/11/20 11:18:46;;;;;;;15.23;10.40;;;3.50;99.90;;;;;;5075480;28;20060;-82
2022/11/20 11:21:13;;;;;;;9.87;7.33;;;3.60;99.90;;;;;;5075653;28;20048;-79
2022/11/20 11:23:43;;;;;;;9.52;6.50;;;3.60;99.90;;;;;;5076537;28;20044;-76
2022/11/20 11:26:25;;;;;;;10.35;6.32;;;3.60;99.90;;;;;;5076430;28;20102;-81
2022/11/20 11:29:03;;;;;;;8.82;5.82;;;3.60;99.90;;;;;;5076359;28;20098;-77
2022/11/20 11:31:34;;;;;;;7.97;5.07;;;3.70;99.90;;;;;;5076154;28;20399;-78
2022/11/20 11:34:05;;;;;;;8.65;5.28;;;3.70;99.90;;;;;;5076055;28;20133;-76
2022/11/20 11:36:34;;;;;;;8.10;5.82;;;3.80;99.90;;;;;;5076166;28;20056;-78
2022/11/20 11:39:02;;;;;;;9.35;6.20;;;3.70;99.90;;;;;;5075884;28;20178;-79
2022/11/20 11:41:32;;;;;;;8.23;5.88;;;3.80;99.90;;;;;;5076228;28;20059;-76
2022/11/20 11:47:00;;;;;;;10.55;6.28;;;3.80;99.90;;;;;;5075990;28;20049;-82
2022/11/20 11:49:26;;;;;;;10.77;5.80;;;3.80;99.90;;;;;;5075213;28;20067;-81
2022/11/20 11:51:51;;;;;;;8.43;5.93;;;3.80;99.90;;;;;;5074900;28;20076;-81
2022/11/20 11:54:26;;;;;;;9.07;5.70;;;3.80;99.90;;;;;;5092034;28;20142;-82
2022/11/20 11:56:53;;;;;;;10.07;7.15;;;3.80;99.90;;;;;;5074823;28;20048;-82
2022/11/20 11:59:47;;;;;;;43.85;30.55;;;3.80;99.90;;;;;;5091722;28;20128;-80
2022/11/20 12:02:31;;;;;;;10.35;7.35;;;3.80;99.90;;;;;;5076090;28;20041;-82
2022/11/20 12:05:14;;;;;;;17.95;16.02;;;3.70;99.90;;;;;;5074595;28;20045;-80
2022/11/20 12:07:54;;;;;;;9.55;6.85;;;3.80;99.90;;;;;;5075748;28;20484;-79
2022/11/20 12:10:23;;;;;;;10.77;7.63;;;3.80;99.90;;;;;;5075867;28;20044;-79
2022/11/20 12:12:54;;;;;;;10.07;5.95;;;3.70;99.90;;;;;;5075385;28;20090;-80
2022/11/20 12:15:31;;;;;;;8.50;5.88;;;3.80;99.90;;;;;;5090445;28;20401;-78
2022/11/20 12:17:57;;;;;;;9.50;6.32;;;3.70;99.90;;;;;;5075444;28;20055;-75
2022/11/20 12:20:35;;;;;;;14.73;10.70;;;3.60;99.90;;;;;;5091139;28;20044;-79
2022/11/20 12:23:27;;;;;;;28.08;20.00;;;3.60;99.90;;;;;;5075229;28;20132;-83
2022/11/20 12:25:56;;;;;;;14.95;10.73;;;3.60;99.90;;;;;;5074123;28;20095;-80
2022/11/20 12:29:04;;;;;;;10.38;7.10;;;3.60;99.90;;;;;;5075132;28;20554;-87
2022/11/20 12:31:55;;;;;;;10.02;6.78;;;3.70;99.90;;;;;;5074276;28;20048;-83
2022/11/20 12:35:02;;;;;;;9.85;6.78;;;3.70;99.90;;;;;;5091444;28;20048;-83
2022/11/20 12:37:45;;;;;;;8.93;6.10;;;3.70;99.90;;;;;;5060224;28;20105;-85
2022/11/20 12:40:29;;;;;;;9.70;6.15;;;3.70;99.90;;;;;;5074900;28;20052;-87
2022/11/20 12:46:22;;;;;;;9.48;6.38;;;3.80;99.90;;;;;;5073768;28;20068;-79
2022/11/20 12:49:12;;;;;;;7.38;5.38;;;3.80;99.90;;;;;;5090952;28;20045;-77
2022/11/20 12:52:06;;;;;;;16.63;6.10;;;3.80;99.90;;;;;;5074958;28;20052;-76
2022/11/20 12:54:34;;;;;;;8.15;5.70;;;3.80;99.90;;;;;;5074026;28;20060;-77
2022/11/20 12:57:07;;;;;;;8.43;5.68;;;3.80;99.90;;;;;;5074538;28;20055;-78
2022/11/20 12:59:53;;;;;;;9.90;6.25;;;3.70;99.90;;;;;;5073949;28;20110;-78
2022/11/20 13:03:03;;;;;;;9.00;5.93;;;3.80;99.90;;;;;;5075099;28;20048;-77
2022/11/20 13:05:34;;;;;;;11.88;8.43;;;3.80;99.90;;;;;;5090860;28;20091;-76
2022/11/20 13:08:01;;;;;;;9.05;6.28;;;3.80;99.90;;;;;;5074379;28;20049;-77
2022/11/20 13:10:37;;;;;;;8.82;6.00;;;3.80;99.90;;;;;;5089893;28;20484;-77
2022/11/20 13:13:11;;;;;;;8.90;5.75;;;3.80;99.90;;;;;;5073297;28;20523;-77